Fallsburg, Kentucky
Current Conditions -  °F | °C
As of 3:35 AM on Friday 28 Nov 2014 (Local Time) from KSJS Reporting Station
Overcast Overcast  
Wind Chill: 29°   Ceiling: 4000
Heat Index: 29°   Visibility: 10mi
Dew Point: 23°   Wind: 0mph
Humidity: 78%   Direction: NA
Pressure: 30.35"   Gusts: NA
Location:  37.9848°N, 82.5857°W
Report Text: KSJS 280835Z AUTO 00000KT 10SM SCT021 OVC040 M01/M05 A3035 RMK AO2 T10151048
Loading
Personal Weather Stations






























Interactive Weather Map New forecast layout! Learn more

10-Day Weather Forecast

Advertisements
Track Severe Weather on mobile